首页
METAR-TAF:

METAR-TAF

机场 :

汶萊國際機場

文莱, 文莱

纬度: 04-56N, 经度: 114-56E, 海拔: 22米

当前天气观测

该预报发布于31分钟前的20:30 UTC
风速3节,风向西转西北
温度 25°C
湿度 100%
气压 1010 hPa
能见度10公里或以上
少量云层高于400英尺
少量云层高于1500英尺, 积雨云.
多云层高于14000英尺
雷暴

METAR: WBSB 172030Z 29003KT 9999 TS FEW004 FEW015CB BKN140 25/25 Q1010 RERA NOSIG

时间: 05:01 (21:01 UTC)

预报

该预报发布于4小时和11分钟前的16:50 UTC
预报有效从17日的 18点(UTC)到 19日的 00点(UTC)
风速3节,风向
能见度10公里或以上
散云层高于1500英尺
少量云层高于1500英尺, 积雨云.
短暂存在
从 17日的 18点(UTC)到 17日的 22点(UTC)
能見度: 4000
雷暴, 雨
成为
从 18日的 00点(UTC)到 18日的 02点(UTC)
风速6节,风向北转西北
少量云层高于1600英尺

TAF: WBSB 171650Z 1718/1900 18003KT 9999 SCT015 FEW015CB TEMPO 1718/1722 4000 TSRA BECMG 1800/1802 34006KT FEW016

超过4000个机场的气象观测和天气预报(METAR&TAF报告)。

可查询的气象台以黄色和红色小点在地图上表示。

将鼠标移到小点上方,可查看气象台名称。

然后点击查看天气观测和预报。

如需切换地图:点击带黑十字的绿色按钮放大地图;点击带横线的绿色按钮缩小地图;或者点击绿色箭头查看邻近地区的地图。


METAR-TAF: